createdAt,value
2023-05-12T00:00:05.335Z,102232.41
2023-05-12T00:02:34.457Z,102226.22
2023-05-12T00:05:02.825Z,102210.63
2023-05-12T00:07:31.251Z,102241.84
2023-05-12T00:09:59.770Z,102231.34
2023-05-12T00:12:28.172Z,102244.34
2023-05-12T00:14:56.946Z,102244.28
2023-05-12T00:17:28.053Z,102250.63
2023-05-12T00:19:56.556Z,102241.75
2023-05-12T00:22:26.870Z,102255.06
2023-05-12T00:24:55.162Z,102252.66
2023-05-12T00:27:23.731Z,102256.06
2023-05-12T00:29:52.005Z,102247.03
2023-05-12T00:32:21.285Z,102245.22
2023-05-12T00:34:51.718Z,102257.69
2023-05-12T00:37:20.132Z,102254.16
2023-05-12T00:39:48.768Z,102218.09
2023-05-12T00:42:17.281Z,102263.19
2023-05-12T00:44:45.674Z,102253.03
2023-05-12T00:47:14.108Z,102269.19
2023-05-12T00:49:42.920Z,102258.53
2023-05-12T00:52:12.817Z,102235.72
2023-05-12T00:54:43.729Z,102232.34
2023-05-12T00:57:12.562Z,102262.28
2023-05-12T00:59:40.873Z,102245.53
2023-05-12T01:02:09.245Z,102267.69
2023-05-12T01:04:43.144Z,102274.81
2023-05-12T01:07:19.519Z,102247.47
2023-05-12T01:09:48.037Z,102270.53
2023-05-12T01:12:16.343Z,102273.19
2023-05-12T01:14:44.518Z,102266.84
2023-05-12T01:17:15.192Z,102271.41
2023-05-12T01:19:49.453Z,102285.72
2023-05-12T01:22:20.166Z,102286.50
2023-05-12T01:24:52.620Z,102287.25
2023-05-12T01:27:25.500Z,102269.56
2023-05-12T01:29:54.517Z,102284.63
2023-05-12T01:32:24.134Z,102288.13
2023-05-12T01:34:53.869Z,102278.31
2023-05-12T01:37:22.454Z,102286.34
2023-05-12T01:39:51.086Z,102271.31
2023-05-12T01:42:19.253Z,102287.22
2023-05-12T01:44:49.344Z,102267.75
2023-05-12T01:47:17.609Z,102299.63
2023-05-12T01:49:46.379Z,102297.88
2023-05-12T01:52:14.664Z,102281.94
2023-05-12T01:54:45.568Z,102297.88
2023-05-12T01:57:16.511Z,102288.97
2023-05-12T01:59:44.852Z,102275.84
2023-05-12T02:02:14.510Z,102299.72
2023-05-12T02:04:43.362Z,102296.09
2023-05-12T02:07:11.826Z,102301.56
2023-05-12T02:09:39.987Z,102301.66
2023-05-12T02:12:09.421Z,102307.03
2023-05-12T02:14:37.696Z,102298.28
2023-05-12T02:17:05.876Z,102307.09
2023-05-12T02:19:35.501Z,102288.44
2023-05-12T02:22:05.769Z,102292.81
2023-05-12T02:24:34.099Z,102303.47
2023-05-12T02:27:02.914Z,102299.91
2023-05-12T02:29:31.755Z,102310.56
2023-05-12T02:31:59.988Z,102301.69
2023-05-12T02:34:28.441Z,102312.31
2023-05-12T02:36:58.619Z,102238.16
2023-05-12T02:39:26.859Z,102319.50
2023-05-12T02:41:55.310Z,102317.72
2023-05-12T02:44:25.906Z,102316.00
2023-05-12T02:46:54.449Z,102318.84
2023-05-12T02:49:22.859Z,102319.66
2023-05-12T02:51:51.501Z,102325.00
2023-05-12T02:54:21.588Z,102324.19
2023-05-12T02:56:49.950Z,102316.25
2023-05-12T02:59:18.256Z,102321.59
2023-05-12T03:01:46.576Z,102321.66
2023-05-12T03:04:15.241Z,102330.50
2023-05-12T03:06:43.471Z,102319.06
2023-05-12T03:09:11.851Z,102311.97
2023-05-12T03:11:41.834Z,102315.53
2023-05-12T03:14:10.129Z,102311.06
2023-05-12T03:16:40.582Z,102282.81
2023-05-12T03:19:12.144Z,102318.16
2023-05-12T03:21:40.477Z,102317.31
2023-05-12T03:24:11.629Z,102323.50
2023-05-12T03:26:41.655Z,102304.91
2023-05-12T03:29:09.811Z,102311.16
2023-05-12T03:31:38.402Z,102321.75
2023-05-12T03:34:07.084Z,102320.88
2023-05-12T03:36:35.332Z,102282.88
2023-05-12T03:39:03.968Z,102320.91
2023-05-12T03:41:34.742Z,102324.41
2023-05-12T03:44:05.743Z,102312.94
2023-05-12T03:46:34.219Z,102305.84
2023-05-12T03:49:02.837Z,102330.56
2023-05-12T03:51:32.086Z,102320.03
2023-05-12T03:54:01.082Z,102325.34
2023-05-12T03:56:29.762Z,102317.38
2023-05-12T03:58:58.785Z,102311.16
2023-05-12T04:01:28.838Z,102314.72
2023-05-12T04:03:57.643Z,102297.91
2023-05-12T04:06:26.195Z,102315.59
2023-05-12T04:08:54.522Z,102309.38
2023-05-12T04:11:23.702Z,102323.50
2023-05-12T04:13:52.228Z,102336.78
2023-05-12T04:16:21.084Z,102335.00
2023-05-12T04:18:51.303Z,102341.19
2023-05-12T04:21:19.808Z,102324.38
2023-05-12T04:23:48.221Z,102306.72
2023-05-12T04:26:16.856Z,102337.69
2023-05-12T04:28:45.083Z,102344.78
2023-05-12T04:31:15.568Z,102351.81
2023-05-12T04:33:45.300Z,102335.94
2023-05-12T04:36:16.784Z,102327.94
2023-05-12T04:38:44.980Z,102350.03
2023-05-12T04:41:13.428Z,102344.72
2023-05-12T04:46:12.904Z,102348.28
2023-05-12T04:48:43.456Z,102338.53
2023-05-12T04:51:11.826Z,102345.63
2023-05-12T04:53:43.549Z,102346.47
2023-05-12T04:56:12.057Z,102339.41
2023-05-12T04:58:40.522Z,102324.34
2023-05-12T05:01:09.126Z,102337.56
2023-05-12T05:03:37.570Z,102337.44
2023-05-12T05:06:06.223Z,102341.88
2023-05-12T05:08:34.685Z,102338.28
2023-05-12T05:11:04.496Z,102349.81
2023-05-12T05:13:33.084Z,102349.88
2023-05-12T05:16:01.697Z,102334.78
2023-05-12T05:18:30.572Z,102298.50
2023-05-12T05:20:59.371Z,102324.19
2023-05-12T05:23:27.652Z,102333.84
2023-05-12T05:25:59.963Z,102360.34
2023-05-12T05:28:29.785Z,102360.34
2023-05-12T05:30:58.128Z,102358.47
2023-05-12T05:33:26.845Z,102356.66
2023-05-12T05:35:56.961Z,102340.75
2023-05-12T05:38:27.586Z,102355.72
2023-05-12T05:40:58.202Z,102307.91
2023-05-12T05:43:26.842Z,102342.41
2023-05-12T05:45:59.937Z,102344.22
2023-05-12T05:48:28.659Z,102337.09
2023-05-12T05:50:56.909Z,102351.13
2023-05-12T05:53:25.457Z,102336.88
2023-05-12T05:55:53.822Z,102359.84
2023-05-12T05:58:22.620Z,102358.03
2023-05-12T06:00:51.756Z,102368.59
2023-05-12T06:03:22.331Z,102365.16
2023-05-12T06:05:51.917Z,102368.56
2023-05-12T06:08:20.523Z,102348.91
2023-05-12T06:10:50.480Z,102362.13
2023-05-12T06:13:21.758Z,102365.50
2023-05-12T06:15:51.105Z,102366.47
2023-05-12T06:18:23.897Z,102367.31
2023-05-12T06:20:52.081Z,102371.78
2023-05-12T06:23:20.261Z,102380.53
2023-05-12T06:25:50.754Z,102361.13
2023-05-12T06:28:18.889Z,102373.31
2023-05-12T06:30:47.393Z,102379.50
2023-05-12T06:33:15.967Z,102375.88
2023-05-12T06:35:45.567Z,102377.56
2023-05-12T06:38:14.153Z,102352.78
2023-05-12T06:40:42.718Z,102386.25
2023-05-12T06:43:11.055Z,102359.78
2023-05-12T06:45:39.448Z,102379.03
2023-05-12T06:48:09.660Z,102373.59
2023-05-12T06:50:38.171Z,102356.56
2023-05-12T06:53:08.695Z,102366.91
2023-05-12T06:55:37.685Z,102358.00
2023-05-12T06:58:05.913Z,102374.88
2023-05-12T07:00:34.243Z,102379.28
2023-05-12T07:03:06.092Z,102380.91
2023-05-12T07:05:34.701Z,102381.50
2023-05-12T07:08:08.755Z,102380.41
2023-05-12T07:10:38.672Z,102378.63
2023-05-12T07:13:07.061Z,102374.06
2023-05-12T07:15:36.748Z,102362.50
2023-05-12T07:18:05.266Z,102385.50
2023-05-12T07:20:33.877Z,102302.66
2023-05-12T07:23:05.645Z,102370.22
2023-05-12T07:25:36.713Z,102360.91
2023-05-12T07:28:05.735Z,102383.66
2023-05-12T07:30:34.711Z,102374.97
2023-05-12T07:33:03.916Z,102378.53
2023-05-12T07:35:34.222Z,102372.78
2023-05-12T07:38:03.589Z,102374.44
2023-05-12T07:40:33.073Z,102387.66
2023-05-12T07:43:07.705Z,102368.00
2023-05-12T07:45:36.884Z,102384.44
2023-05-12T07:48:05.736Z,102368.16
2023-05-12T07:50:34.168Z,102380.38
2023-05-12T07:53:06.014Z,102370.16
2023-05-12T07:55:35.166Z,102341.25
2023-05-12T07:58:07.883Z,102369.22
2023-05-12T08:00:36.775Z,102367.28
2023-05-12T08:03:11.669Z,102349.94
2023-05-12T08:05:40.215Z,102370.06
2023-05-12T08:08:09.861Z,102349.94
2023-05-12T08:10:38.278Z,102363.00
2023-05-12T08:13:08.831Z,102371.47
2023-05-12T08:15:37.926Z,102346.38
2023-05-12T08:18:10.617Z,102325.53
2023-05-12T08:20:40.520Z,102347.66
2023-05-12T08:23:09.068Z,102367.31
2023-05-12T08:25:42.632Z,102332.16
2023-05-12T08:28:13.523Z,102361.81
2023-05-12T08:30:44.898Z,102354.50
2023-05-12T08:33:15.757Z,102284.63
2023-05-12T08:35:45.912Z,102325.41
2023-05-12T08:38:14.719Z,102360.75
2023-05-12T08:40:49.534Z,102347.91
2023-05-12T08:43:26.850Z,102278.19
2023-05-12T08:45:58.721Z,102362.84
2023-05-12T08:48:30.977Z,102345.25
2023-05-12T08:51:03.265Z,102355.09
2023-05-12T08:53:35.006Z,102322.34
2023-05-12T08:58:46.103Z,102341.53
2023-05-12T09:01:18.096Z,102354.56
2023-05-12T09:03:47.919Z,102352.47
2023-05-12T09:06:17.791Z,102313.28
2023-05-12T09:08:48.419Z,102334.28
2023-05-12T09:11:19.696Z,102341.28
2023-05-12T09:14:07.809Z,102340.31
2023-05-12T09:16:43.393Z,102335.09
2023-05-12T09:19:20.047Z,102350.06
2023-05-12T09:21:50.780Z,102285.47
2023-05-12T09:24:19.500Z,102360.41
2023-05-12T09:26:51.120Z,102301.00
2023-05-12T09:29:31.243Z,102363.69
2023-05-12T09:32:03.875Z,102362.28
2023-05-12T09:34:36.171Z,102304.97
2023-05-12T09:37:07.830Z,102363.59
2023-05-12T09:39:38.422Z,102304.78
2023-05-12T09:42:15.186Z,102284.66
2023-05-12T09:44:49.565Z,102281.84
2023-05-12T09:47:24.712Z,102350.78
2023-05-12T09:49:55.501Z,102350.06
2023-05-12T09:52:24.826Z,102349.31
2023-05-12T09:54:54.577Z,102352.63
2023-05-12T09:57:27.472Z,102350.47
2023-05-12T09:59:58.950Z,102336.09
2023-05-12T10:02:30.249Z,102330.44
2023-05-12T10:08:05.113Z,102342.91
2023-05-12T10:10:35.675Z,102337.03
2023-05-12T10:13:04.980Z,102337.41
2023-05-12T10:15:38.328Z,102330.94
2023-05-12T10:18:07.745Z,102329.63
2023-05-12T10:20:42.333Z,102336.94
2023-05-12T10:23:13.833Z,102337.59
2023-05-12T10:25:46.096Z,102336.69
2023-05-12T10:28:17.152Z,102321.41
2023-05-12T10:30:49.726Z,102326.00
2023-05-12T10:33:19.492Z,102318.09
2023-05-12T10:35:49.650Z,102327.16
2023-05-12T10:38:20.038Z,102306.88
2023-05-12T10:40:58.689Z,102296.09
2023-05-12T10:43:29.934Z,102306.75
2023-05-12T10:46:21.145Z,102311.69
2023-05-12T10:48:57.384Z,102313.78
2023-05-12T10:51:29.198Z,102307.06
2023-05-12T10:54:02.932Z,102302.50
2023-05-12T10:56:33.573Z,102322.94
2023-05-12T10:59:19.576Z,102306.50
2023-05-12T11:02:03.991Z,102313.88
2023-05-12T11:04:43.474Z,102308.63
2023-05-12T11:07:15.698Z,102304.59
2023-05-12T11:09:57.860Z,102316.16
2023-05-12T11:12:33.218Z,102311.66
2023-05-12T11:15:11.578Z,102326.91
2023-05-12T11:17:42.677Z,102324.34
2023-05-12T11:20:12.634Z,102313.88
2023-05-12T11:22:43.589Z,102330.53
2023-05-12T11:25:13.031Z,102298.78
2023-05-12T11:27:48.064Z,102335.53
2023-05-12T11:30:28.671Z,102334.91
2023-05-12T11:33:11.158Z,102348.28
2023-05-12T11:35:39.908Z,102338.53
2023-05-12T11:41:26.668Z,102331.72
2023-05-12T11:43:55.421Z,102341.16
2023-05-12T11:46:27.716Z,102341.09
2023-05-12T11:48:58.838Z,102329.75
2023-05-12T11:51:28.404Z,102329.53
2023-05-12T11:53:57.565Z,102327.06
2023-05-12T11:56:26.931Z,102322.50
2023-05-12T11:58:59.981Z,102332.50
2023-05-12T12:01:28.689Z,102334.63
2023-05-12T12:03:59.061Z,102279.13
2023-05-12T12:06:27.719Z,102341.31
2023-05-12T12:08:57.436Z,102334.41
2023-05-12T12:11:28.635Z,102359.13
2023-05-12T12:13:57.800Z,102351.59
2023-05-12T12:16:26.895Z,102364.22
2023-05-12T12:18:55.397Z,102374.47
2023-05-12T12:21:26.528Z,102374.47
2023-05-12T12:23:54.963Z,102369.75
2023-05-12T12:26:23.395Z,102379.50
2023-05-12T12:28:51.646Z,102380.41
2023-05-12T12:31:20.096Z,102388.97
2023-05-12T12:33:48.733Z,102383.28
2023-05-12T12:36:16.912Z,102376.72
2023-05-12T12:38:47.451Z,102371.84
2023-05-12T12:41:15.596Z,102386.09
2023-05-12T12:43:44.694Z,102383.38
2023-05-12T12:46:13.190Z,102381.28
2023-05-12T12:48:41.664Z,102392.41
2023-05-12T12:51:10.369Z,102388.38
2023-05-12T12:53:39.229Z,102370.53
2023-05-12T12:56:09.218Z,102387.25
2023-05-12T12:58:37.760Z,102386.69
2023-05-12T13:01:06.816Z,102377.56
2023-05-12T13:03:35.113Z,102374.38
2023-05-12T13:06:03.445Z,102389.78
2023-05-12T13:08:32.232Z,102385.88
2023-05-12T13:11:01.010Z,102388.56
2023-05-12T13:13:31.518Z,102389.75
2023-05-12T13:15:59.821Z,102390.72
2023-05-12T13:18:27.980Z,102382.81
2023-05-12T13:20:56.298Z,102390.31
2023-05-12T13:23:25.418Z,102389.78
2023-05-12T13:25:53.598Z,102392.53
2023-05-12T13:28:21.853Z,102395.50
2023-05-12T13:30:53.951Z,102370.59
2023-05-12T13:33:22.477Z,102389.34
2023-05-12T13:35:50.735Z,102384.69
2023-05-12T13:38:20.156Z,102391.72
2023-05-12T13:40:48.318Z,102389.59
2023-05-12T13:43:17.669Z,102377.38
2023-05-12T13:45:46.067Z,102373.69
2023-05-12T13:48:16.381Z,102381.72
2023-05-12T13:50:44.758Z,102379.03
2023-05-12T13:53:13.597Z,102385.81
2023-05-12T13:55:41.808Z,102381.72
2023-05-12T13:58:10.113Z,102377.53
2023-05-12T14:00:38.583Z,102382.03
2023-05-12T14:03:10.165Z,102379.16
2023-05-12T14:05:40.840Z,102381.72
2023-05-12T14:08:09.288Z,102357.66
2023-05-12T14:10:37.724Z,102372.41
2023-05-12T14:13:08.532Z,102369.34
2023-05-12T14:15:48.751Z,102380.16
2023-05-12T14:18:18.391Z,102376.72
2023-05-12T14:20:48.480Z,102382.28
2023-05-12T14:23:16.950Z,102380.06
2023-05-12T14:25:47.594Z,102380.25
2023-05-12T14:28:15.913Z,102365.91
2023-05-12T14:30:45.655Z,102376.81
2023-05-12T14:33:14.247Z,102365.72
2023-05-12T14:35:44.740Z,102371.31
2023-05-12T14:38:17.972Z,102367.13
2023-05-12T14:40:47.512Z,102366.44
2023-05-12T14:43:15.733Z,102364.19
2023-05-12T14:45:44.745Z,102359.06
2023-05-12T14:48:13.117Z,102360.25
2023-05-12T14:50:44.042Z,102356.72
2023-05-12T14:53:12.384Z,102357.72
2023-05-12T14:55:42.232Z,102354.91
2023-05-12T14:58:10.524Z,102359.13
2023-05-12T15:00:41.097Z,102331.63
2023-05-12T15:03:09.424Z,102354.53
2023-05-12T15:05:56.874Z,102345.34
2023-05-12T15:08:28.181Z,102347.72
2023-05-12T15:11:03.662Z,102342.88
2023-05-12T15:13:35.068Z,102337.28
2023-05-12T15:16:04.934Z,102338.25
2023-05-12T15:18:33.295Z,102329.56
2023-05-12T15:21:01.596Z,102344.06
2023-05-12T15:23:30.344Z,102341.97
2023-05-12T15:26:10.550Z,102341.03
2023-05-12T15:28:44.071Z,102342.19
2023-05-12T15:31:12.477Z,102347.31
2023-05-12T15:33:51.583Z,102319.97
2023-05-12T15:36:19.971Z,102328.66
2023-05-12T15:38:48.296Z,102326.59
2023-05-12T15:41:18.007Z,102325.78
2023-05-12T15:43:46.378Z,102322.31
2023-05-12T15:46:14.594Z,102333.31
2023-05-12T15:48:45.483Z,102323.47
2023-05-12T15:51:14.255Z,102334.44
2023-05-12T15:53:42.472Z,102334.72
2023-05-12T15:56:13.781Z,102332.97
2023-05-12T15:58:44.037Z,102337.09
2023-05-12T16:01:14.044Z,102325.44
2023-05-12T16:03:42.829Z,102337.81
2023-05-12T16:06:12.671Z,102333.09
2023-05-12T16:08:42.825Z,102312.88
2023-05-12T16:11:13.461Z,102340.09
2023-05-12T16:13:43.616Z,102327.38
2023-05-12T16:16:12.347Z,102335.63
2023-05-12T16:18:41.584Z,102318.00
2023-05-12T16:21:09.898Z,102330.63
2023-05-12T16:23:38.450Z,102327.34
2023-05-12T16:26:06.898Z,102323.03
2023-05-12T16:28:39.104Z,102333.47
2023-05-12T16:31:08.870Z,102328.03
2023-05-12T16:33:37.661Z,102313.50
2023-05-12T16:36:06.951Z,102328.56
2023-05-12T16:38:36.892Z,102324.81
2023-05-12T16:41:05.325Z,102318.22
2023-05-12T16:43:33.896Z,102323.13
2023-05-12T16:46:04.253Z,102312.38
2023-05-12T16:48:36.989Z,102315.38
2023-05-12T16:51:07.024Z,102328.94
2023-05-12T16:53:35.683Z,102312.84
2023-05-12T16:56:05.994Z,102322.84
2023-05-12T16:58:34.556Z,102317.06
2023-05-12T17:01:05.931Z,102317.97
2023-05-12T17:03:36.330Z,102313.41
2023-05-12T17:06:05.217Z,102309.41
2023-05-12T17:08:36.219Z,102315.44
2023-05-12T17:11:05.803Z,102322.00
2023-05-12T17:13:37.269Z,102329.41
2023-05-12T17:16:06.208Z,102306.19
2023-05-12T17:21:11.560Z,102318.88
2023-05-12T17:23:41.140Z,102318.41
2023-05-12T17:26:09.327Z,102318.22
2023-05-12T17:28:37.751Z,102311.28
2023-05-12T17:31:10.491Z,102309.09
2023-05-12T17:33:40.321Z,102324.59
2023-05-12T17:36:12.953Z,102320.59
2023-05-12T17:38:42.792Z,102325.34
2023-05-12T17:41:11.420Z,102307.19
2023-05-12T17:43:39.811Z,102331.88
2023-05-12T17:46:09.261Z,102326.50
2023-05-12T17:48:38.825Z,102323.22
2023-05-12T17:51:13.639Z,102309.41
2023-05-12T17:53:42.163Z,102318.34
2023-05-12T17:56:10.710Z,102328.78
2023-05-12T17:58:39.443Z,102314.25
2023-05-12T18:01:08.266Z,102328.78
2023-05-12T18:03:37.096Z,102326.31
2023-05-12T18:06:06.333Z,102323.84
2023-05-12T18:08:35.925Z,102318.34
2023-05-12T18:11:04.106Z,102324.16
2023-05-12T18:13:33.152Z,102330.28
2023-05-12T18:16:04.134Z,102325.50
2023-05-12T18:18:35.736Z,102313.75
2023-05-12T18:21:04.209Z,102326.53
2023-05-12T18:23:33.088Z,102325.56
2023-05-12T18:26:05.250Z,102332.84
2023-05-12T18:28:33.448Z,102320.53
2023-05-12T18:31:15.151Z,102329.09
2023-05-12T18:33:47.232Z,102335.97
2023-05-12T18:36:15.921Z,102336.41
2023-05-12T18:38:44.132Z,102345.50
2023-05-12T18:41:14.172Z,102340.06
2023-05-12T18:43:44.544Z,102342.72
2023-05-12T18:46:12.953Z,102342.81
2023-05-12T18:48:41.629Z,102347.31
2023-05-12T18:51:10.827Z,102347.16
2023-05-12T18:53:39.316Z,102334.88
2023-05-12T18:56:11.230Z,102350.66
2023-05-12T18:58:40.985Z,102350.72
2023-05-12T19:01:09.814Z,102350.88
2023-05-12T19:03:38.084Z,102360.81
2023-05-12T19:06:07.474Z,102354.63
2023-05-12T19:08:35.731Z,102358.00
2023-05-12T19:11:04.589Z,102358.25
2023-05-12T19:13:32.882Z,102349.59
2023-05-12T19:16:03.218Z,102365.34
2023-05-12T19:18:33.574Z,102358.53
2023-05-12T19:21:07.229Z,102360.25
2023-05-12T19:23:35.590Z,102364.06
2023-05-12T19:26:03.965Z,102358.97
2023-05-12T19:28:35.239Z,102360.91
2023-05-12T19:31:05.554Z,102327.34
2023-05-12T19:33:35.346Z,102365.06
2023-05-12T19:36:03.849Z,102368.75
2023-05-12T19:38:34.786Z,102371.44
2023-05-12T19:41:03.660Z,102382.38
2023-05-12T19:43:32.215Z,102372.09
2023-05-12T19:46:00.955Z,102371.97
2023-05-12T19:48:31.540Z,102372.09
2023-05-12T19:51:00.184Z,102375.72
2023-05-12T19:53:28.462Z,102381.25
2023-05-12T19:55:56.905Z,102388.94
2023-05-12T19:58:25.295Z,102380.28
2023-05-12T20:00:54.119Z,102387.84
2023-05-12T20:03:23.396Z,102375.88
2023-05-12T20:05:53.383Z,102369.03
2023-05-12T20:08:21.550Z,102385.00
2023-05-12T20:10:50.445Z,102379.88
2023-05-12T20:13:18.667Z,102392.63
2023-05-12T20:15:46.898Z,102385.53
2023-05-12T20:18:17.031Z,102383.88
2023-05-12T20:20:48.460Z,102389.41
2023-05-12T20:23:18.305Z,102387.53
2023-05-12T20:25:46.786Z,102382.53
2023-05-12T20:28:15.033Z,102386.13
2023-05-12T20:30:43.740Z,102389.72
2023-05-12T20:33:12.042Z,102388.03
2023-05-12T20:35:40.207Z,102384.50
2023-05-12T20:38:08.932Z,102382.84
2023-05-12T20:40:40.530Z,102388.25
2023-05-12T20:43:09.446Z,102367.31
2023-05-12T20:45:37.861Z,102377.84
2023-05-12T20:48:06.801Z,102388.44
2023-05-12T20:50:35.099Z,102381.44
2023-05-12T20:53:03.443Z,102381.47
2023-05-12T20:55:33.831Z,102372.88
2023-05-12T20:58:03.473Z,102369.47
2023-05-12T21:00:34.766Z,102388.88
2023-05-12T21:03:04.477Z,102387.34
2023-05-12T21:05:33.218Z,102397.16
2023-05-12T21:08:01.457Z,102389.19
2023-05-12T21:10:29.907Z,102369.88
2023-05-12T21:12:58.761Z,102401.72
2023-05-12T21:15:29.076Z,102403.56
2023-05-12T21:17:58.312Z,102397.38
2023-05-12T21:20:26.868Z,102400.84
2023-05-12T21:22:59.034Z,102388.38
2023-05-12T21:25:27.432Z,102389.28
2023-05-12T21:27:55.558Z,102398.13
2023-05-12T21:30:23.848Z,102400.84
2023-05-12T21:32:53.703Z,102391.34
2023-05-12T21:35:21.904Z,102397.59
2023-05-12T21:40:34.856Z,102359.59
2023-05-12T21:43:03.980Z,102407.25
2023-05-12T21:45:34.940Z,102403.78
2023-05-12T21:48:06.181Z,102401.22
2023-05-12T21:50:34.354Z,102395.00
2023-05-12T21:53:06.165Z,102386.19
2023-05-12T21:55:34.611Z,102394.97
2023-05-12T21:58:02.868Z,102409.16
2023-05-12T22:00:34.098Z,102409.28
2023-05-12T22:03:06.181Z,102407.47
2023-05-12T22:05:34.491Z,102419.09
2023-05-12T22:08:03.049Z,102414.66
2023-05-12T22:10:32.136Z,102417.41
2023-05-12T22:13:01.544Z,102412.94
2023-05-12T22:15:31.896Z,102417.50
2023-05-12T22:18:00.472Z,102415.03
2023-05-12T22:20:31.102Z,102399.25
2023-05-12T22:23:01.924Z,102403.63
2023-05-12T22:25:31.034Z,102424.84
2023-05-12T22:27:59.229Z,102435.50
2023-05-12T22:30:27.659Z,102420.47
2023-05-12T22:32:56.542Z,102434.63
2023-05-12T22:35:24.721Z,102420.44
2023-05-12T22:37:54.323Z,102416.94
2023-05-12T22:40:23.280Z,102436.38
2023-05-12T22:42:51.785Z,102417.03
2023-05-12T22:45:19.937Z,102441.84
2023-05-12T22:47:48.358Z,102410.88
2023-05-12T22:50:16.722Z,102425.03
2023-05-12T22:52:45.137Z,102433.00
2023-05-12T22:55:15.218Z,102433.00
2023-05-12T22:57:46.348Z,102440.09
2023-05-12T23:00:15.746Z,102417.09
2023-05-12T23:02:44.401Z,102428.59
2023-05-12T23:05:12.922Z,102440.13
2023-05-12T23:07:41.466Z,102423.34
2023-05-12T23:10:10.736Z,102401.19
2023-05-12T23:12:40.493Z,102445.41
2023-05-12T23:15:09.954Z,102422.38
2023-05-12T23:17:38.533Z,102435.63
2023-05-12T23:20:08.167Z,102434.81
2023-05-12T23:22:36.965Z,102426.03
2023-05-12T23:25:07.893Z,102449.06
2023-05-12T23:27:37.253Z,102443.75
2023-05-12T23:30:08.433Z,102441.13
2023-05-12T23:32:39.599Z,102446.47
2023-05-12T23:35:09.631Z,102449.13
2023-05-12T23:37:37.757Z,102445.59
2023-05-12T23:40:10.487Z,102454.44
2023-05-12T23:42:38.704Z,102431.44
2023-05-12T23:45:09.729Z,102461.53
2023-05-12T23:47:41.683Z,102459.75
2023-05-12T23:50:10.541Z,102446.47
2023-05-12T23:52:38.877Z,102453.53
2023-05-12T23:55:08.460Z,102456.19
2023-05-12T23:57:37.104Z,102438.53
